sensor_id;sensor_type;location;lat;lon;timestamp;P1;durP1;ratioP1;P2;durP2;ratioP2
79025;SDS011;68425;44.716;37.756;2023-03-23T00:00:24;4.38;;;2.45;;
79025;SDS011;68425;44.716;37.756;2023-03-23T00:01:26;4.65;;;2.67;;
79025;SDS011;68425;44.716;37.756;2023-03-23T00:02:31;5.07;;;2.63;;
79025;SDS011;68425;44.716;37.756;2023-03-23T00:03:39;4.90;;;2.75;;
79025;SDS011;68425;44.716;37.756;2023-03-23T00:04:42;5.18;;;2.55;;
79025;SDS011;68425;44.716;37.756;2023-03-23T00:05:43;5.38;;;2.35;;
79025;SDS011;68425;44.716;37.756;2023-03-23T00:06:51;4.50;;;2.30;;
79025;SDS011;68425;44.716;37.756;2023-03-23T00:07:52;4.93;;;2.42;;
79025;SDS011;68425;44.716;37.756;2023-03-23T00:08:56;4.65;;;2.35;;
79025;SDS011;68425;44.716;37.756;2023-03-23T00:10:00;5.15;;;2.40;;
79025;SDS011;68425;44.716;37.756;2023-03-23T00:11:04;5.20;;;2.50;;
79025;SDS011;68425;44.716;37.756;2023-03-23T00:12:06;4.90;;;2.60;;
79025;SDS011;68425;44.716;37.756;2023-03-23T00:13:08;4.72;;;2.55;;
79025;SDS011;68425;44.716;37.756;2023-03-23T00:14:12;4.13;;;2.50;;
79025;SDS011;68425;44.716;37.756;2023-03-23T00:15:13;4.00;;;2.13;;
79025;SDS011;68425;44.716;37.756;2023-03-23T00:16:18;4.80;;;2.70;;
79025;SDS011;68425;44.716;37.756;2023-03-23T00:17:31;4.15;;;2.63;;
79025;SDS011;68425;44.716;37.756;2023-03-23T00:18:36;5.03;;;2.50;;
79025;SDS011;68425;44.716;37.756;2023-03-23T00:19:37;4.57;;;2.50;;
79025;SDS011;68425;44.716;37.756;2023-03-23T00:20:49;4.93;;;2.53;;
79025;SDS011;68425;44.716;37.756;2023-03-23T00:21:52;5.57;;;2.72;;
79025;SDS011;68425;44.716;37.756;2023-03-23T00:22:54;4.38;;;2.78;;
79025;SDS011;68425;44.716;37.756;2023-03-23T00:24:01;5.85;;;2.55;;
79025;SDS011;68425;44.716;37.756;2023-03-23T00:25:05;4.93;;;2.55;;
79025;SDS011;68425;44.716;37.756;2023-03-23T00:26:09;4.60;;;2.70;;
79025;SDS011;68425;44.716;37.756;2023-03-23T00:27:10;5.55;;;2.70;;
79025;SDS011;68425;44.716;37.756;2023-03-23T00:28:22;4.65;;;2.53;;
79025;SDS011;68425;44.716;37.756;2023-03-23T00:29:25;5.32;;;2.80;;
79025;SDS011;68425;44.716;37.756;2023-03-23T00:30:27;4.35;;;2.30;;
79025;SDS011;68425;44.716;37.756;2023-03-23T00:31:28;4.20;;;2.50;;
79025;SDS011;68425;44.716;37.756;2023-03-23T00:32:37;5.25;;;2.63;;
79025;SDS011;68425;44.716;37.756;2023-03-23T00:33:39;5.40;;;2.63;;
79025;SDS011;68425;44.716;37.756;2023-03-23T00:34:42;4.30;;;2.22;;
79025;SDS011;68425;44.716;37.756;2023-03-23T00:35:45;4.88;;;2.45;;
79025;SDS011;68425;44.716;37.756;2023-03-23T00:36:48;5.70;;;2.38;;
79025;SDS011;68425;44.716;37.756;2023-03-23T00:37:51;5.05;;;2.40;;
79025;SDS011;68425;44.716;37.756;2023-03-23T00:39:00;4.80;;;2.63;;
79025;SDS011;68425;44.716;37.756;2023-03-23T00:41:11;5.00;;;2.45;;
79025;SDS011;68425;44.716;37.756;2023-03-23T00:42:13;4.45;;;2.67;;
79025;SDS011;68425;44.716;37.756;2023-03-23T00:43:16;4.35;;;2.53;;
79025;SDS011;68425;44.716;37.756;2023-03-23T00:44:19;4.97;;;2.50;;
79025;SDS011;68425;44.716;37.756;2023-03-23T00:45:24;4.70;;;2.40;;
79025;SDS011;68425;44.716;37.756;2023-03-23T00:46:26;5.28;;;2.70;;
79025;SDS011;68425;44.716;37.756;2023-03-23T00:47:28;5.90;;;2.60;;
79025;SDS011;68425;44.716;37.756;2023-03-23T00:48:32;4.63;;;2.55;;
79025;SDS011;68425;44.716;37.756;2023-03-23T00:49:36;5.20;;;2.50;;
79025;SDS011;68425;44.716;37.756;2023-03-23T00:50:39;4.30;;;2.20;;
79025;SDS011;68425;44.716;37.756;2023-03-23T00:51:41;3.85;;;2.17;;
79025;SDS011;68425;44.716;37.756;2023-03-23T00:52:43;4.60;;;2.30;;
79025;SDS011;68425;44.716;37.756;2023-03-23T00:53:45;5.65;;;2.75;;
79025;SDS011;68425;44.716;37.756;2023-03-23T00:54:47;5.40;;;2.50;;
79025;SDS011;68425;44.716;37.756;2023-03-23T00:55:50;5.50;;;2.67;;
79025;SDS011;68425;44.716;37.756;2023-03-23T00:56:51;5.97;;;2.80;;
79025;SDS011;68425;44.716;37.756;2023-03-23T00:57:54;4.40;;;2.28;;
79025;SDS011;68425;44.716;37.756;2023-03-23T00:58:56;4.20;;;2.30;;
79025;SDS011;68425;44.716;37.756;2023-03-23T00:59:57;4.80;;;2.58;;
79025;SDS011;68425;44.716;37.756;2023-03-23T01:01:02;4.97;;;2.97;;
79025;SDS011;68425;44.716;37.756;2023-03-23T01:02:04;4.68;;;2.42;;
79025;SDS011;68425;44.716;37.756;2023-03-23T01:03:06;4.57;;;2.67;;
79025;SDS011;68425;44.716;37.756;2023-03-23T01:04:18;4.35;;;2.60;;
79025;SDS011;68425;44.716;37.756;2023-03-23T01:05:22;5.05;;;2.88;;
79025;SDS011;68425;44.716;37.756;2023-03-23T01:06:23;4.30;;;2.70;;
79025;SDS011;68425;44.716;37.756;2023-03-23T01:08:42;4.40;;;2.72;;
79025;SDS011;68425;44.716;37.756;2023-03-23T01:09:49;5.53;;;2.78;;
79025;SDS011;68425;44.716;37.756;2023-03-23T01:11:04;6.57;;;3.25;;
79025;SDS011;68425;44.716;37.756;2023-03-23T01:12:07;4.97;;;2.95;;
79025;SDS011;68425;44.716;37.756;2023-03-23T01:13:08;6.63;;;2.97;;
79025;SDS011;68425;44.716;37.756;2023-03-23T01:14:10;5.38;;;3.22;;
79025;SDS011;68425;44.716;37.756;2023-03-23T01:15:17;5.35;;;2.55;;
79025;SDS011;68425;44.716;37.756;2023-03-23T01:16:24;4.82;;;2.70;;
79025;SDS011;68425;44.716;37.756;2023-03-23T01:17:26;4.95;;;2.88;;
79025;SDS011;68425;44.716;37.756;2023-03-23T01:18:27;5.10;;;2.60;;
79025;SDS011;68425;44.716;37.756;2023-03-23T01:19:30;7.07;;;3.13;;
79025;SDS011;68425;44.716;37.756;2023-03-23T01:20:57;5.75;;;2.85;;
79025;SDS011;68425;44.716;37.756;2023-03-23T01:22:14;5.45;;;2.85;;
79025;SDS011;68425;44.716;37.756;2023-03-23T01:23:15;4.95;;;2.90;;
79025;SDS011;68425;44.716;37.756;2023-03-23T01:24:17;5.97;;;3.05;;
79025;SDS011;68425;44.716;37.756;2023-03-23T01:25:19;5.82;;;3.10;;
79025;SDS011;68425;44.716;37.756;2023-03-23T01:26:21;5.78;;;3.05;;
79025;SDS011;68425;44.716;37.756;2023-03-23T01:27:25;4.60;;;2.80;;
79025;SDS011;68425;44.716;37.756;2023-03-23T01:28:27;4.95;;;2.80;;
79025;SDS011;68425;44.716;37.756;2023-03-23T01:29:29;4.85;;;2.63;;
79025;SDS011;68425;44.716;37.756;2023-03-23T01:30:30;5.38;;;2.83;;
79025;SDS011;68425;44.716;37.756;2023-03-23T01:31:32;6.75;;;2.80;;
79025;SDS011;68425;44.716;37.756;2023-03-23T01:32:35;5.93;;;2.90;;
79025;SDS011;68425;44.716;37.756;2023-03-23T01:33:38;5.75;;;2.72;;
79025;SDS011;68425;44.716;37.756;2023-03-23T01:34:41;6.63;;;3.08;;
79025;SDS011;68425;44.716;37.756;2023-03-23T01:35:43;4.88;;;2.58;;
79025;SDS011;68425;44.716;37.756;2023-03-23T01:36:44;4.47;;;2.95;;
79025;SDS011;68425;44.716;37.756;2023-03-23T01:37:46;6.05;;;3.03;;
79025;SDS011;68425;44.716;37.756;2023-03-23T01:38:49;5.53;;;2.83;;
79025;SDS011;68425;44.716;37.756;2023-03-23T01:39:55;5.70;;;3.30;;
79025;SDS011;68425;44.716;37.756;2023-03-23T01:40:57;5.05;;;3.15;;
79025;SDS011;68425;44.716;37.756;2023-03-23T01:41:58;5.72;;;3.22;;
79025;SDS011;68425;44.716;37.756;2023-03-23T01:43:00;4.97;;;3.00;;
79025;SDS011;68425;44.716;37.756;2023-03-23T01:45:31;5.70;;;2.95;;
79025;SDS011;68425;44.716;37.756;2023-03-23T01:46:36;5.60;;;3.38;;
79025;SDS011;68425;44.716;37.756;2023-03-23T01:47:37;5.22;;;3.03;;
79025;SDS011;68425;44.716;37.756;2023-03-23T01:48:39;5.55;;;3.00;;
79025;SDS011;68425;44.716;37.756;2023-03-23T01:49:45;5.53;;;2.92;;
79025;SDS011;68425;44.716;37.756;2023-03-23T01:50:56;5.88;;;2.80;;
79025;SDS011;68425;44.716;37.756;2023-03-23T01:52:09;6.47;;;3.20;;
79025;SDS011;68425;44.716;37.756;2023-03-23T01:53:24;5.68;;;3.33;;
79025;SDS011;68425;44.716;37.756;2023-03-23T01:54:34;5.18;;;2.95;;
79025;SDS011;68425;44.716;37.756;2023-03-23T01:55:39;5.63;;;3.00;;
79025;SDS011;68425;44.716;37.756;2023-03-23T01:58:03;4.97;;;3.30;;
79025;SDS011;68425;44.716;37.756;2023-03-23T01:59:05;5.15;;;2.70;;
79025;SDS011;68425;44.716;37.756;2023-03-23T02:00:08;5.60;;;3.40;;
79025;SDS011;68425;44.716;37.756;2023-03-23T02:01:23;5.53;;;3.15;;
79025;SDS011;68425;44.716;37.756;2023-03-23T02:02:26;4.90;;;3.00;;
79025;SDS011;68425;44.716;37.756;2023-03-23T02:03:30;4.93;;;2.88;;
79025;SDS011;68425;44.716;37.756;2023-03-23T02:04:33;5.63;;;3.40;;
79025;SDS011;68425;44.716;37.756;2023-03-23T02:05:39;6.43;;;3.33;;
79025;SDS011;68425;44.716;37.756;2023-03-23T02:06:49;6.35;;;3.45;;
79025;SDS011;68425;44.716;37.756;2023-03-23T02:07:56;6.53;;;3.22;;
79025;SDS011;68425;44.716;37.756;2023-03-23T02:09:04;5.10;;;2.90;;
79025;SDS011;68425;44.716;37.756;2023-03-23T02:10:07;5.75;;;3.30;;
79025;SDS011;68425;44.716;37.756;2023-03-23T02:11:17;5.35;;;3.17;;
79025;SDS011;68425;44.716;37.756;2023-03-23T02:12:23;5.80;;;2.92;;
79025;SDS011;68425;44.716;37.756;2023-03-23T02:14:29;5.95;;;3.47;;
79025;SDS011;68425;44.716;37.756;2023-03-23T02:25:59;7.72;;;3.30;;
79025;SDS011;68425;44.716;37.756;2023-03-23T02:31:56;6.32;;;3.25;;
79025;SDS011;68425;44.716;37.756;2023-03-23T02:35:54;6.50;;;3.15;;
79025;SDS011;68425;44.716;37.756;2023-03-23T02:37:16;5.70;;;3.13;;
79025;SDS011;68425;44.716;37.756;2023-03-23T02:38:30;5.82;;;3.53;;
79025;SDS011;68425;44.716;37.756;2023-03-23T02:40:54;6.43;;;3.53;;
79025;SDS011;68425;44.716;37.756;2023-03-23T02:42:05;5.50;;;3.30;;
79025;SDS011;68425;44.716;37.756;2023-03-23T02:43:13;6.40;;;3.55;;
79025;SDS011;68425;44.716;37.756;2023-03-23T02:44:16;6.63;;;3.45;;
79025;SDS011;68425;44.716;37.756;2023-03-23T02:45:21;6.65;;;3.53;;
79025;SDS011;68425;44.716;37.756;2023-03-23T02:46:29;6.93;;;3.28;;
79025;SDS011;68425;44.716;37.756;2023-03-23T02:47:32;5.95;;;3.13;;
79025;SDS011;68425;44.716;37.756;2023-03-23T02:48:38;6.47;;;3.30;;
79025;SDS011;68425;44.716;37.756;2023-03-23T02:49:42;5.97;;;3.50;;
79025;SDS011;68425;44.716;37.756;2023-03-23T02:50:49;6.15;;;3.90;;
79025;SDS011;68425;44.716;37.756;2023-03-23T02:51:53;6.10;;;3.50;;
79025;SDS011;68425;44.716;37.756;2023-03-23T02:53:00;5.80;;;3.28;;
79025;SDS011;68425;44.716;37.756;2023-03-23T02:54:05;5.57;;;3.60;;
79025;SDS011;68425;44.716;37.756;2023-03-23T02:55:08;6.75;;;3.67;;
79025;SDS011;68425;44.716;37.756;2023-03-23T02:56:16;6.68;;;3.35;;
79025;SDS011;68425;44.716;37.756;2023-03-23T02:57:20;8.85;;;3.63;;
79025;SDS011;68425;44.716;37.756;2023-03-23T02:58:27;6.78;;;3.63;;
79025;SDS011;68425;44.716;37.756;2023-03-23T02:59:33;6.55;;;3.67;;
79025;SDS011;68425;44.716;37.756;2023-03-23T03:00:34;6.28;;;3.97;;
79025;SDS011;68425;44.716;37.756;2023-03-23T03:02:41;6.18;;;3.40;;
79025;SDS011;68425;44.716;37.756;2023-03-23T03:03:45;5.85;;;3.58;;
79025;SDS011;68425;44.716;37.756;2023-03-23T03:04:48;6.15;;;3.38;;
79025;SDS011;68425;44.716;37.756;2023-03-23T03:06:22;7.22;;;4.03;;
79025;SDS011;68425;44.716;37.756;2023-03-23T03:08:58;6.60;;;3.60;;
79025;SDS011;68425;44.716;37.756;2023-03-23T03:10:25;5.60;;;3.50;;
79025;SDS011;68425;44.716;37.756;2023-03-23T03:11:33;6.38;;;3.60;;
79025;SDS011;68425;44.716;37.756;2023-03-23T03:12:46;5.90;;;3.83;;
79025;SDS011;68425;44.716;37.756;2023-03-23T03:13:59;5.80;;;3.58;;
79025;SDS011;68425;44.716;37.756;2023-03-23T03:15:14;5.55;;;3.60;;
79025;SDS011;68425;44.716;37.756;2023-03-23T03:17:41;5.88;;;3.40;;
79025;SDS011;68425;44.716;37.756;2023-03-23T03:20:04;5.80;;;3.63;;
79025;SDS011;68425;44.716;37.756;2023-03-23T03:21:12;7.25;;;3.50;;
79025;SDS011;68425;44.716;37.756;2023-03-23T03:22:18;7.95;;;3.53;;
79025;SDS011;68425;44.716;37.756;2023-03-23T03:23:22;6.28;;;3.55;;
79025;SDS011;68425;44.716;37.756;2023-03-23T03:24:28;6.30;;;3.67;;
79025;SDS011;68425;44.716;37.756;2023-03-23T03:25:31;6.15;;;3.88;;
79025;SDS011;68425;44.716;37.756;2023-03-23T03:26:33;6.43;;;3.75;;
79025;SDS011;68425;44.716;37.756;2023-03-23T03:28:07;6.30;;;3.70;;
79025;SDS011;68425;44.716;37.756;2023-03-23T03:29:18;7.28;;;3.72;;
79025;SDS011;68425;44.716;37.756;2023-03-23T03:30:28;5.55;;;3.72;;
79025;SDS011;68425;44.716;37.756;2023-03-23T03:31:36;5.00;;;3.35;;
79025;SDS011;68425;44.716;37.756;2023-03-23T03:32:44;5.88;;;3.50;;
79025;SDS011;68425;44.716;37.756;2023-03-23T03:33:50;5.53;;;3.25;;
79025;SDS011;68425;44.716;37.756;2023-03-23T03:34:52;6.22;;;4.13;;
79025;SDS011;68425;44.716;37.756;2023-03-23T03:35:55;5.82;;;3.80;;
79025;SDS011;68425;44.716;37.756;2023-03-23T03:36:59;9.18;;;4.65;;
79025;SDS011;68425;44.716;37.756;2023-03-23T03:38:05;6.13;;;3.85;;
79025;SDS011;68425;44.716;37.756;2023-03-23T03:39:11;6.80;;;3.97;;
79025;SDS011;68425;44.716;37.756;2023-03-23T03:40:18;8.25;;;3.75;;
79025;SDS011;68425;44.716;37.756;2023-03-23T03:41:25;5.50;;;3.17;;
79025;SDS011;68425;44.716;37.756;2023-03-23T03:42:27;7.53;;;3.88;;
79025;SDS011;68425;44.716;37.756;2023-03-23T03:43:28;7.82;;;3.75;;
79025;SDS011;68425;44.716;37.756;2023-03-23T03:44:32;6.47;;;3.78;;
79025;SDS011;68425;44.716;37.756;2023-03-23T03:45:34;7.00;;;3.72;;
79025;SDS011;68425;44.716;37.756;2023-03-23T03:46:36;6.95;;;3.80;;
79025;SDS011;68425;44.716;37.756;2023-03-23T03:47:41;6.60;;;3.53;;
79025;SDS011;68425;44.716;37.756;2023-03-23T03:48:43;6.90;;;3.85;;
79025;SDS011;68425;44.716;37.756;2023-03-23T03:49:45;6.18;;;3.80;;
79025;SDS011;68425;44.716;37.756;2023-03-23T03:50:46;7.65;;;3.70;;
79025;SDS011;68425;44.716;37.756;2023-03-23T03:51:48;7.35;;;3.95;;
79025;SDS011;68425;44.716;37.756;2023-03-23T03:52:58;6.57;;;4.28;;
79025;SDS011;68425;44.716;37.756;2023-03-23T03:53:59;8.38;;;4.13;;
79025;SDS011;68425;44.716;37.756;2023-03-23T03:55:02;6.25;;;3.38;;
79025;SDS011;68425;44.716;37.756;2023-03-23T03:56:06;6.75;;;4.10;;
79025;SDS011;68425;44.716;37.756;2023-03-23T03:57:15;7.25;;;4.05;;
79025;SDS011;68425;44.716;37.756;2023-03-23T03:58:44;6.20;;;3.58;;
79025;SDS011;68425;44.716;37.756;2023-03-23T04:00:10;7.90;;;4.30;;
79025;SDS011;68425;44.716;37.756;2023-03-23T04:01:16;7.55;;;4.05;;
79025;SDS011;68425;44.716;37.756;2023-03-23T04:02:19;5.85;;;3.63;;
79025;SDS011;68425;44.716;37.756;2023-03-23T04:03:24;6.80;;;3.60;;
79025;SDS011;68425;44.716;37.756;2023-03-23T04:04:40;6.22;;;3.70;;
79025;SDS011;68425;44.716;37.756;2023-03-23T04:05:42;8.05;;;3.90;;
79025;SDS011;68425;44.716;37.756;2023-03-23T04:06:46;8.45;;;3.80;;
79025;SDS011;68425;44.716;37.756;2023-03-23T04:07:50;7.07;;;3.75;;
79025;SDS011;68425;44.716;37.756;2023-03-23T04:08:57;7.25;;;3.80;;
79025;SDS011;68425;44.716;37.756;2023-03-23T04:10:00;7.10;;;4.00;;
79025;SDS011;68425;44.716;37.756;2023-03-23T04:11:01;6.15;;;3.50;;
79025;SDS011;68425;44.716;37.756;2023-03-23T04:12:05;9.60;;;3.70;;
79025;SDS011;68425;44.716;37.756;2023-03-23T04:13:28;5.80;;;3.88;;
79025;SDS011;68425;44.716;37.756;2023-03-23T04:14:40;5.75;;;3.50;;
79025;SDS011;68425;44.716;37.756;2023-03-23T04:15:43;9.80;;;3.80;;
79025;SDS011;68425;44.716;37.756;2023-03-23T04:16:47;7.38;;;3.90;;
79025;SDS011;68425;44.716;37.756;2023-03-23T04:17:48;8.25;;;3.90;;
79025;SDS011;68425;44.716;37.756;2023-03-23T04:18:51;8.73;;;4.00;;
79025;SDS011;68425;44.716;37.756;2023-03-23T04:19:54;6.63;;;4.25;;
79025;SDS011;68425;44.716;37.756;2023-03-23T04:21:00;7.35;;;4.05;;
79025;SDS011;68425;44.716;37.756;2023-03-23T04:22:04;7.25;;;3.90;;
79025;SDS011;68425;44.716;37.756;2023-03-23T04:23:08;6.70;;;4.53;;
79025;SDS011;68425;44.716;37.756;2023-03-23T04:24:09;8.35;;;4.05;;
79025;SDS011;68425;44.716;37.756;2023-03-23T04:25:12;6.28;;;3.80;;
79025;SDS011;68425;44.716;37.756;2023-03-23T04:26:15;9.70;;;4.03;;
79025;SDS011;68425;44.716;37.756;2023-03-23T04:27:21;8.25;;;4.13;;
79025;SDS011;68425;44.716;37.756;2023-03-23T04:28:24;8.48;;;4.07;;
79025;SDS011;68425;44.716;37.756;2023-03-23T04:29:49;6.22;;;3.67;;
79025;SDS011;68425;44.716;37.756;2023-03-23T04:31:15;7.07;;;3.70;;
79025;SDS011;68425;44.716;37.756;2023-03-23T04:32:20;7.32;;;4.10;;
79025;SDS011;68425;44.716;37.756;2023-03-23T04:33:27;6.97;;;3.92;;
79025;SDS011;68425;44.716;37.756;2023-03-23T04:34:31;7.53;;;3.85;;
79025;SDS011;68425;44.716;37.756;2023-03-23T04:35:35;8.80;;;4.10;;
79025;SDS011;68425;44.716;37.756;2023-03-23T04:36:45;6.75;;;4.03;;
79025;SDS011;68425;44.716;37.756;2023-03-23T04:37:52;6.03;;;3.47;;
79025;SDS011;68425;44.716;37.756;2023-03-23T04:39:59;6.53;;;3.80;;
79025;SDS011;68425;44.716;37.756;2023-03-23T04:41:18;6.25;;;3.53;;
79025;SDS011;68425;44.716;37.756;2023-03-23T04:42:43;6.93;;;3.42;;
79025;SDS011;68425;44.716;37.756;2023-03-23T04:44:00;9.07;;;4.13;;
79025;SDS011;68425;44.716;37.756;2023-03-23T04:45:15;7.60;;;3.70;;
79025;SDS011;68425;44.716;37.756;2023-03-23T04:46:28;8.77;;;4.10;;
79025;SDS011;68425;44.716;37.756;2023-03-23T04:47:35;7.15;;;4.05;;
79025;SDS011;68425;44.716;37.756;2023-03-23T04:48:57;8.45;;;3.80;;
79025;SDS011;68425;44.716;37.756;2023-03-23T04:50:10;10.07;;;4.28;;
79025;SDS011;68425;44.716;37.756;2023-03-23T04:51:15;7.80;;;4.03;;
79025;SDS011;68425;44.716;37.756;2023-03-23T04:52:19;6.00;;;3.90;;
79025;SDS011;68425;44.716;37.756;2023-03-23T04:53:26;6.18;;;3.45;;
79025;SDS011;68425;44.716;37.756;2023-03-23T04:54:27;6.80;;;3.78;;
79025;SDS011;68425;44.716;37.756;2023-03-23T04:55:33;7.32;;;3.67;;
79025;SDS011;68425;44.716;37.756;2023-03-23T04:56:42;7.88;;;3.88;;
79025;SDS011;68425;44.716;37.756;2023-03-23T04:57:48;8.55;;;3.65;;
79025;SDS011;68425;44.716;37.756;2023-03-23T04:59:08;8.00;;;4.10;;
79025;SDS011;68425;44.716;37.756;2023-03-23T05:00:16;7.35;;;3.75;;
79025;SDS011;68425;44.716;37.756;2023-03-23T05:01:29;6.57;;;3.78;;
79025;SDS011;68425;44.716;37.756;2023-03-23T05:02:53;7.25;;;3.38;;
79025;SDS011;68425;44.716;37.756;2023-03-23T05:03:58;5.78;;;3.65;;
79025;SDS011;68425;44.716;37.756;2023-03-23T05:05:01;6.65;;;4.05;;
79025;SDS011;68425;44.716;37.756;2023-03-23T05:06:04;7.45;;;3.75;;
79025;SDS011;68425;44.716;37.756;2023-03-23T05:07:07;8.10;;;4.10;;
79025;SDS011;68425;44.716;37.756;2023-03-23T05:08:14;6.28;;;3.70;;
79025;SDS011;68425;44.716;37.756;2023-03-23T05:09:17;6.70;;;3.20;;
79025;SDS011;68425;44.716;37.756;2023-03-23T05:10:23;6.82;;;3.67;;
79025;SDS011;68425;44.716;37.756;2023-03-23T05:11:27;6.00;;;3.53;;
79025;SDS011;68425;44.716;37.756;2023-03-23T05:12:29;7.07;;;3.92;;
79025;SDS011;68425;44.716;37.756;2023-03-23T05:13:42;7.45;;;3.72;;
79025;SDS011;68425;44.716;37.756;2023-03-23T05:14:46;8.40;;;3.50;;
79025;SDS011;68425;44.716;37.756;2023-03-23T05:15:51;6.10;;;3.70;;
79025;SDS011;68425;44.716;37.756;2023-03-23T05:16:53;7.95;;;3.42;;
79025;SDS011;68425;44.716;37.756;2023-03-23T05:17:55;7.00;;;3.85;;
79025;SDS011;68425;44.716;37.756;2023-03-23T05:18:56;5.72;;;3.30;;
79025;SDS011;68425;44.716;37.756;2023-03-23T05:20:01;5.43;;;3.10;;
79025;SDS011;68425;44.716;37.756;2023-03-23T05:21:13;5.32;;;3.55;;
79025;SDS011;68425;44.716;37.756;2023-03-23T05:22:19;6.30;;;3.30;;
79025;SDS011;68425;44.716;37.756;2023-03-23T05:23:25;6.05;;;3.17;;
79025;SDS011;68425;44.716;37.756;2023-03-23T05:24:34;7.15;;;3.92;;
79025;SDS011;68425;44.716;37.756;2023-03-23T05:25:38;7.25;;;3.15;;
79025;SDS011;68425;44.716;37.756;2023-03-23T05:26:53;8.73;;;3.35;;
79025;SDS011;68425;44.716;37.756;2023-03-23T05:28:00;4.90;;;3.08;;
79025;SDS011;68425;44.716;37.756;2023-03-23T05:29:25;5.95;;;3.65;;
79025;SDS011;68425;44.716;37.756;2023-03-23T05:30:32;5.47;;;3.22;;
79025;SDS011;68425;44.716;37.756;2023-03-23T05:31:33;6.13;;;3.50;;
79025;SDS011;68425;44.716;37.756;2023-03-23T05:32:36;7.95;;;3.35;;
79025;SDS011;68425;44.716;37.756;2023-03-23T05:33:54;6.07;;;3.45;;
79025;SDS011;68425;44.716;37.756;2023-03-23T05:35:14;6.60;;;3.47;;
79025;SDS011;68425;44.716;37.756;2023-03-23T05:36:16;6.50;;;3.38;;
79025;SDS011;68425;44.716;37.756;2023-03-23T05:37:41;6.00;;;3.60;;
79025;SDS011;68425;44.716;37.756;2023-03-23T05:38:44;6.18;;;3.30;;
79025;SDS011;68425;44.716;37.756;2023-03-23T05:39:51;4.72;;;2.90;;
79025;SDS011;68425;44.716;37.756;2023-03-23T05:40:57;5.63;;;3.22;;
79025;SDS011;68425;44.716;37.756;2023-03-23T05:42:06;6.82;;;3.17;;
79025;SDS011;68425;44.716;37.756;2023-03-23T05:43:34;5.53;;;3.30;;
79025;SDS011;68425;44.716;37.756;2023-03-23T05:44:56;5.78;;;3.05;;
79025;SDS011;68425;44.716;37.756;2023-03-23T05:45:59;5.43;;;3.10;;
79025;SDS011;68425;44.716;37.756;2023-03-23T05:47:01;5.13;;;3.08;;
79025;SDS011;68425;44.716;37.756;2023-03-23T05:48:02;5.88;;;3.53;;
79025;SDS011;68425;44.716;37.756;2023-03-23T05:49:04;6.65;;;3.33;;
79025;SDS011;68425;44.716;37.756;2023-03-23T05:50:12;6.85;;;3.42;;
79025;SDS011;68425;44.716;37.756;2023-03-23T05:51:14;6.78;;;3.25;;
79025;SDS011;68425;44.716;37.756;2023-03-23T05:52:18;5.80;;;3.38;;
79025;SDS011;68425;44.716;37.756;2023-03-23T05:53:22;7.85;;;3.40;;
79025;SDS011;68425;44.716;37.756;2023-03-23T05:54:25;5.40;;;3.20;;
79025;SDS011;68425;44.716;37.756;2023-03-23T05:55:27;5.95;;;3.33;;
79025;SDS011;68425;44.716;37.756;2023-03-23T05:56:41;6.20;;;3.30;;
79025;SDS011;68425;44.716;37.756;2023-03-23T05:57:58;6.28;;;3.10;;
79025;SDS011;68425;44.716;37.756;2023-03-23T05:59:07;5.40;;;3.17;;
79025;SDS011;68425;44.716;37.756;2023-03-23T06:00:10;5.35;;;3.28;;
79025;SDS011;68425;44.716;37.756;2023-03-23T06:01:18;5.78;;;3.42;;
79025;SDS011;68425;44.716;37.756;2023-03-23T06:02:19;4.82;;;3.08;;
79025;SDS011;68425;44.716;37.756;2023-03-23T06:03:21;6.43;;;2.97;;
79025;SDS011;68425;44.716;37.756;2023-03-23T06:04:43;5.38;;;2.88;;
79025;SDS011;68425;44.716;37.756;2023-03-23T06:05:59;5.03;;;2.80;;
79025;SDS011;68425;44.716;37.756;2023-03-23T06:07:09;6.25;;;3.70;;
79025;SDS011;68425;44.716;37.756;2023-03-23T06:08:21;5.38;;;3.10;;
79025;SDS011;68425;44.716;37.756;2023-03-23T06:09:23;5.47;;;3.22;;
79025;SDS011;68425;44.716;37.756;2023-03-23T06:10:44;5.80;;;3.00;;
79025;SDS011;68425;44.716;37.756;2023-03-23T06:11:47;5.03;;;2.83;;
79025;SDS011;68425;44.716;37.756;2023-03-23T06:13:08;5.10;;;3.05;;
79025;SDS011;68425;44.716;37.756;2023-03-23T06:14:16;5.55;;;3.30;;
79025;SDS011;68425;44.716;37.756;2023-03-23T06:15:25;5.60;;;3.13;;
79025;SDS011;68425;44.716;37.756;2023-03-23T06:16:55;5.28;;;3.00;;
79025;SDS011;68425;44.716;37.756;2023-03-23T06:17:58;6.00;;;3.13;;
79025;SDS011;68425;44.716;37.756;2023-03-23T06:19:08;5.57;;;2.92;;
79025;SDS011;68425;44.716;37.756;2023-03-23T06:20:14;5.60;;;2.90;;
79025;SDS011;68425;44.716;37.756;2023-03-23T06:21:19;5.82;;;3.40;;
79025;SDS011;68425;44.716;37.756;2023-03-23T06:22:40;5.90;;;2.75;;
79025;SDS011;68425;44.716;37.756;2023-03-23T06:23:45;5.32;;;2.70;;
79025;SDS011;68425;44.716;37.756;2023-03-23T06:24:48;7.20;;;3.47;;
79025;SDS011;68425;44.716;37.756;2023-03-23T06:25:58;6.43;;;3.03;;
79025;SDS011;68425;44.716;37.756;2023-03-23T06:27:05;5.72;;;3.00;;
79025;SDS011;68425;44.716;37.756;2023-03-23T06:28:07;5.43;;;3.10;;
79025;SDS011;68425;44.716;37.756;2023-03-23T06:29:13;4.72;;;3.00;;
79025;SDS011;68425;44.716;37.756;2023-03-23T06:30:19;5.78;;;3.28;;
79025;SDS011;68425;44.716;37.756;2023-03-23T06:31:24;5.18;;;3.17;;
79025;SDS011;68425;44.716;37.756;2023-03-23T06:32:28;6.47;;;2.72;;
79025;SDS011;68425;44.716;37.756;2023-03-23T06:33:32;4.93;;;2.85;;
79025;SDS011;68425;44.716;37.756;2023-03-23T06:34:52;6.00;;;2.88;;
79025;SDS011;68425;44.716;37.756;2023-03-23T06:36:12;5.75;;;2.97;;
79025;SDS011;68425;44.716;37.756;2023-03-23T06:37:20;5.65;;;2.75;;
79025;SDS011;68425;44.716;37.756;2023-03-23T06:38:36;5.90;;;2.95;;
79025;SDS011;68425;44.716;37.756;2023-03-23T06:39:38;5.35;;;3.03;;
79025;SDS011;68425;44.716;37.756;2023-03-23T06:40:59;4.72;;;2.80;;
79025;SDS011;68425;44.716;37.756;2023-03-23T06:42:04;6.60;;;3.17;;
79025;SDS011;68425;44.716;37.756;2023-03-23T06:43:09;5.55;;;2.83;;
79025;SDS011;68425;44.716;37.756;2023-03-23T06:44:29;6.68;;;3.10;;
79025;SDS011;68425;44.716;37.756;2023-03-23T06:45:31;5.25;;;3.03;;
79025;SDS011;68425;44.716;37.756;2023-03-23T06:46:52;4.70;;;2.88;;
79025;SDS011;68425;44.716;37.756;2023-03-23T06:47:59;5.05;;;2.95;;
79025;SDS011;68425;44.716;37.756;2023-03-23T06:50:15;5.07;;;2.80;;
79025;SDS011;68425;44.716;37.756;2023-03-23T06:51:18;4.68;;;2.92;;
79025;SDS011;68425;44.716;37.756;2023-03-23T06:52:24;4.95;;;2.80;;
79025;SDS011;68425;44.716;37.756;2023-03-23T06:53:26;4.68;;;2.67;;
79025;SDS011;68425;44.716;37.756;2023-03-23T06:54:30;4.82;;;3.10;;
79025;SDS011;68425;44.716;37.756;2023-03-23T06:55:34;4.78;;;2.80;;
79025;SDS011;68425;44.716;37.756;2023-03-23T06:56:38;4.80;;;2.60;;
79025;SDS011;68425;44.716;37.756;2023-03-23T06:57:40;5.07;;;3.20;;
79025;SDS011;68425;44.716;37.756;2023-03-23T06:58:42;4.82;;;2.55;;
79025;SDS011;68425;44.716;37.756;2023-03-23T06:59:44;5.63;;;3.20;;
79025;SDS011;68425;44.716;37.756;2023-03-23T07:00:46;4.97;;;3.03;;
79025;SDS011;68425;44.716;37.756;2023-03-23T07:01:50;4.68;;;2.90;;
79025;SDS011;68425;44.716;37.756;2023-03-23T07:02:54;5.97;;;2.92;;
79025;SDS011;68425;44.716;37.756;2023-03-23T07:04:01;5.57;;;3.10;;
79025;SDS011;68425;44.716;37.756;2023-03-23T07:05:13;5.53;;;2.85;;
79025;SDS011;68425;44.716;37.756;2023-03-23T07:06:16;5.80;;;3.00;;
79025;SDS011;68425;44.716;37.756;2023-03-23T07:08:45;4.90;;;2.75;;
79025;SDS011;68425;44.716;37.756;2023-03-23T07:09:51;5.38;;;3.03;;